PASN/SNP METAR and TAF weather

Enter ICAO airport designator
Station Type Date Time Source
PASN METAR 2020/04/03 21:53 UTC NOAA

PASN 032153Z AUTO 21027G36KT 3SM BR FEW007 SCT012 OVC022 04/02 A2998 RMK PK WND 21036/2145 SLP153 T00390022 PWINO TSNO $ VIA AUTODIAL


Station Type Date Time Source
PASN Decoded METAR 2020/04/03 21:53 UTC NOAA

ST PAUL ISLAND AIRPORT, AK, United States (PASN) 57-10N 170-13W 9M
Apr 03, 2020 - 05:53 PM EDT / 2020.04.03 2153 UTC
Wind: from the SSW (210 degrees) at 31 MPH (27 KT) gusting to 41 MPH (36 KT):0
Visibility: 3 mile(s):0
Sky conditions: overcast
Weather: mist
Temperature: 39.0 F (3.9 C)
Dew Point: 36.0 F (2.2 C)
Relative Humidity: 88%
Pressure (altimeter): 29.98 in. Hg (1015 hPa)
ob: PASN 032153Z AUTO 21027G36KT 3SM BR FEW007 SCT012 OVC022 04/02 A2998 RMK PK WND 21036/2145 SLP153 T00390022 PWINO TSNO VIA AUTODIAL
cycle: 22

Station Type Date Time Source
PASN TAF 2020/04/03 18:45 UTC NOAA

TAF PASN 031741Z 0318/0418 22025G35KT 2SM -RA BR SCT007 OVC010 WS020/22060KT
FM032100 20025G35KT 1SM -RA BR OVC007 WS020/23070KT
FM040800 20025G35KT 4SM BR OVC015 WS020/22055KT

Example: see airport list